sensor_id;sensor_type;location;lat;lon;timestamp;P1;durP1;ratioP1;P2;durP2;ratioP2
40150;SDS011;25866;52.420;10.640;2022-09-09T00:06:36;2.78;;;1.90;;
40150;SDS011;25866;52.420;10.640;2022-09-09T00:09:25;4.20;;;2.05;;
40150;SDS011;25866;52.420;10.640;2022-09-09T00:17:26;4.82;;;2.30;;
40150;SDS011;25866;52.420;10.640;2022-09-09T00:20:18;4.70;;;1.90;;
40150;SDS011;25866;52.420;10.640;2022-09-09T00:23:11;2.45;;;1.92;;
40150;SDS011;25866;52.420;10.640;2022-09-09T00:28:24;3.67;;;1.80;;
40150;SDS011;25866;52.420;10.640;2022-09-09T00:30:52;5.55;;;1.98;;
40150;SDS011;25866;52.420;10.640;2022-09-09T00:33:20;3.10;;;1.73;;
40150;SDS011;25866;52.420;10.640;2022-09-09T00:35:53;4.20;;;1.67;;
40150;SDS011;25866;52.420;10.640;2022-09-09T00:38:36;4.00;;;1.65;;
40150;SDS011;25866;52.420;10.640;2022-09-09T00:44:30;2.65;;;1.52;;
40150;SDS011;25866;52.420;10.640;2022-09-09T00:46:59;2.13;;;1.58;;
40150;SDS011;25866;52.420;10.640;2022-09-09T00:53:14;4.35;;;1.63;;
40150;SDS011;25866;52.420;10.640;2022-09-09T00:56:09;5.10;;;1.55;;
40150;SDS011;25866;52.420;10.640;2022-09-09T00:58:42;3.67;;;1.45;;
40150;SDS011;25866;52.420;10.640;2022-09-09T01:01:15;3.13;;;1.30;;
40150;SDS011;25866;52.420;10.640;2022-09-09T01:03:43;1.80;;;1.27;;
40150;SDS011;25866;52.420;10.640;2022-09-09T01:11:23;3.97;;;1.25;;
40150;SDS011;25866;52.420;10.640;2022-09-09T01:13:53;5.28;;;1.27;;
40150;SDS011;25866;52.420;10.640;2022-09-09T01:16:25;1.63;;;1.00;;
40150;SDS011;25866;52.420;10.640;2022-09-09T01:18:54;2.88;;;1.13;;
40150;SDS011;25866;52.420;10.640;2022-09-09T01:26:34;3.30;;;1.00;;
40150;SDS011;25866;52.420;10.640;2022-09-09T01:29:08;2.65;;;1.10;;
40150;SDS011;25866;52.420;10.640;2022-09-09T01:31:39;4.32;;;0.90;;
40150;SDS011;25866;52.420;10.640;2022-09-09T01:34:14;2.35;;;0.85;;
40150;SDS011;25866;52.420;10.640;2022-09-09T01:37:02;2.90;;;0.98;;
40150;SDS011;25866;52.420;10.640;2022-09-09T01:39:34;1.00;;;0.80;;
40150;SDS011;25866;52.420;10.640;2022-09-09T01:42:03;4.45;;;0.98;;
40150;SDS011;25866;52.420;10.640;2022-09-09T01:44:32;3.60;;;1.02;;
40150;SDS011;25866;52.420;10.640;2022-09-09T01:47:00;4.18;;;1.20;;
40150;SDS011;25866;52.420;10.640;2022-09-09T01:49:26;1.20;;;0.80;;
40150;SDS011;25866;52.420;10.640;2022-09-09T01:51:53;1.60;;;0.93;;
40150;SDS011;25866;52.420;10.640;2022-09-09T01:54:21;3.53;;;0.88;;
40150;SDS011;25866;52.420;10.640;2022-09-09T01:57:06;4.78;;;1.00;;
40150;SDS011;25866;52.420;10.640;2022-09-09T02:00:09;2.60;;;0.93;;
40150;SDS011;25866;52.420;10.640;2022-09-09T02:05:40;4.15;;;0.77;;
40150;SDS011;25866;52.420;10.640;2022-09-09T02:08:34;1.65;;;0.70;;
40150;SDS011;25866;52.420;10.640;2022-09-09T02:11:12;2.25;;;0.90;;
40150;SDS011;25866;52.420;10.640;2022-09-09T02:13:39;4.93;;;1.10;;
40150;SDS011;25866;52.420;10.640;2022-09-09T02:16:23;3.25;;;0.80;;
40150;SDS011;25866;52.420;10.640;2022-09-09T02:21:54;4.72;;;0.77;;
40150;SDS011;25866;52.420;10.640;2022-09-09T02:24:23;5.57;;;1.00;;
40150;SDS011;25866;52.420;10.640;2022-09-09T02:26:51;2.42;;;0.80;;
40150;SDS011;25866;52.420;10.640;2022-09-09T02:29:28;2.90;;;0.90;;
40150;SDS011;25866;52.420;10.640;2022-09-09T02:32:07;5.97;;;0.80;;
40150;SDS011;25866;52.420;10.640;2022-09-09T02:34:39;3.60;;;0.95;;
40150;SDS011;25866;52.420;10.640;2022-09-09T02:37:10;3.55;;;0.60;;
40150;SDS011;25866;52.420;10.640;2022-09-09T02:39:38;4.75;;;0.80;;
40150;SDS011;25866;52.420;10.640;2022-09-09T02:42:04;3.03;;;0.88;;
40150;SDS011;25866;52.420;10.640;2022-09-09T02:44:30;5.05;;;0.80;;
40150;SDS011;25866;52.420;10.640;2022-09-09T02:49:46;0.77;;;0.63;;
40150;SDS011;25866;52.420;10.640;2022-09-09T02:52:45;1.92;;;0.85;;
40150;SDS011;25866;52.420;10.640;2022-09-09T02:55:39;1.50;;;0.70;;
40150;SDS011;25866;52.420;10.640;2022-09-09T02:58:33;1.70;;;0.80;;
40150;SDS011;25866;52.420;10.640;2022-09-09T03:00:59;4.88;;;0.93;;
40150;SDS011;25866;52.420;10.640;2022-09-09T03:03:26;2.03;;;0.70;;
40150;SDS011;25866;52.420;10.640;2022-09-09T03:05:52;1.40;;;0.68;;
40150;SDS011;25866;52.420;10.640;2022-09-09T03:08:17;4.15;;;0.93;;
40150;SDS011;25866;52.420;10.640;2022-09-09T03:10:43;2.22;;;1.00;;
40150;SDS011;25866;52.420;10.640;2022-09-09T03:13:09;2.72;;;0.80;;
40150;SDS011;25866;52.420;10.640;2022-09-09T03:15:35;1.48;;;0.60;;
40150;SDS011;25866;52.420;10.640;2022-09-09T03:18:00;3.40;;;0.73;;
40150;SDS011;25866;52.420;10.640;2022-09-09T03:20:27;3.80;;;0.68;;
40150;SDS011;25866;52.420;10.640;2022-09-09T03:22:54;3.25;;;0.80;;
40150;SDS011;25866;52.420;10.640;2022-09-09T03:25:21;2.00;;;0.68;;
40150;SDS011;25866;52.420;10.640;2022-09-09T03:27:49;3.42;;;0.88;;
40150;SDS011;25866;52.420;10.640;2022-09-09T03:30:15;1.83;;;0.60;;
40150;SDS011;25866;52.420;10.640;2022-09-09T03:32:41;1.42;;;0.60;;
40150;SDS011;25866;52.420;10.640;2022-09-09T03:35:07;2.90;;;0.70;;
40150;SDS011;25866;52.420;10.640;2022-09-09T03:37:33;1.48;;;0.57;;
40150;SDS011;25866;52.420;10.640;2022-09-09T03:39:59;2.55;;;0.80;;
40150;SDS011;25866;52.420;10.640;2022-09-09T03:42:25;2.20;;;0.85;;
40150;SDS011;25866;52.420;10.640;2022-09-09T03:44:50;2.42;;;1.00;;
40150;SDS011;25866;52.420;10.640;2022-09-09T03:47:20;2.88;;;0.70;;
40150;SDS011;25866;52.420;10.640;2022-09-09T03:49:49;2.72;;;0.75;;
40150;SDS011;25866;52.420;10.640;2022-09-09T03:52:15;4.88;;;1.00;;
40150;SDS011;25866;52.420;10.640;2022-09-09T03:54:41;1.88;;;0.57;;
40150;SDS011;25866;52.420;10.640;2022-09-09T03:57:07;1.80;;;0.70;;
40150;SDS011;25866;52.420;10.640;2022-09-09T03:59:35;3.08;;;0.70;;
40150;SDS011;25866;52.420;10.640;2022-09-09T04:02:01;1.90;;;0.68;;
40150;SDS011;25866;52.420;10.640;2022-09-09T04:04:27;1.85;;;0.70;;
40150;SDS011;25866;52.420;10.640;2022-09-09T04:06:53;2.95;;;0.90;;
40150;SDS011;25866;52.420;10.640;2022-09-09T04:09:19;2.15;;;0.77;;
40150;SDS011;25866;52.420;10.640;2022-09-09T04:11:44;3.25;;;0.73;;
40150;SDS011;25866;52.420;10.640;2022-09-09T04:14:11;2.00;;;0.70;;
40150;SDS011;25866;52.420;10.640;2022-09-09T04:16:37;4.20;;;0.90;;
40150;SDS011;25866;52.420;10.640;2022-09-09T04:19:03;2.95;;;0.88;;
40150;SDS011;25866;52.420;10.640;2022-09-09T04:21:30;4.32;;;0.90;;
40150;SDS011;25866;52.420;10.640;2022-09-09T04:23:55;4.65;;;1.02;;
40150;SDS011;25866;52.420;10.640;2022-09-09T04:26:21;1.05;;;0.80;;
40150;SDS011;25866;52.420;10.640;2022-09-09T04:28:47;5.93;;;1.27;;
40150;SDS011;25866;52.420;10.640;2022-09-09T04:31:17;3.85;;;0.95;;
40150;SDS011;25866;52.420;10.640;2022-09-09T04:33:45;2.13;;;0.65;;
40150;SDS011;25866;52.420;10.640;2022-09-09T04:36:11;2.55;;;0.70;;
40150;SDS011;25866;52.420;10.640;2022-09-09T04:38:37;9.30;;;0.80;;
40150;SDS011;25866;52.420;10.640;2022-09-09T04:41:04;6.45;;;0.82;;
40150;SDS011;25866;52.420;10.640;2022-09-09T04:43:31;2.45;;;0.98;;
40150;SDS011;25866;52.420;10.640;2022-09-09T04:45:57;1.15;;;0.60;;
40150;SDS011;25866;52.420;10.640;2022-09-09T04:48:24;4.38;;;0.70;;
40150;SDS011;25866;52.420;10.640;2022-09-09T04:50:54;3.53;;;0.85;;
40150;SDS011;25866;52.420;10.640;2022-09-09T04:53:20;2.88;;;1.00;;
40150;SDS011;25866;52.420;10.640;2022-09-09T04:55:47;3.67;;;0.70;;
40150;SDS011;25866;52.420;10.640;2022-09-09T04:58:13;1.92;;;1.00;;
40150;SDS011;25866;52.420;10.640;2022-09-09T05:00:39;5.55;;;0.90;;
40150;SDS011;25866;52.420;10.640;2022-09-09T05:03:05;6.88;;;0.95;;
40150;SDS011;25866;52.420;10.640;2022-09-09T05:05:34;2.15;;;1.00;;
40150;SDS011;25866;52.420;10.640;2022-09-09T05:08:00;3.60;;;0.90;;
40150;SDS011;25866;52.420;10.640;2022-09-09T05:10:27;4.55;;;1.10;;
40150;SDS011;25866;52.420;10.640;2022-09-09T05:12:53;5.07;;;0.95;;
40150;SDS011;25866;52.420;10.640;2022-09-09T05:15:19;3.55;;;0.88;;
40150;SDS011;25866;52.420;10.640;2022-09-09T05:17:46;2.33;;;0.82;;
40150;SDS011;25866;52.420;10.640;2022-09-09T05:20:11;3.38;;;0.95;;
40150;SDS011;25866;52.420;10.640;2022-09-09T05:22:37;2.20;;;0.88;;
40150;SDS011;25866;52.420;10.640;2022-09-09T05:25:03;5.20;;;1.00;;
40150;SDS011;25866;52.420;10.640;2022-09-09T05:27:29;1.25;;;0.80;;
40150;SDS011;25866;52.420;10.640;2022-09-09T05:29:56;3.15;;;0.90;;
40150;SDS011;25866;52.420;10.640;2022-09-09T05:32:23;3.70;;;0.75;;
40150;SDS011;25866;52.420;10.640;2022-09-09T05:34:49;3.03;;;1.00;;
40150;SDS011;25866;52.420;10.640;2022-09-09T05:37:15;3.22;;;1.00;;
40150;SDS011;25866;52.420;10.640;2022-09-09T05:39:41;2.63;;;0.95;;
40150;SDS011;25866;52.420;10.640;2022-09-09T05:42:07;2.95;;;0.80;;
40150;SDS011;25866;52.420;10.640;2022-09-09T05:44:33;3.38;;;1.20;;
40150;SDS011;25866;52.420;10.640;2022-09-09T05:46:58;1.63;;;0.90;;
40150;SDS011;25866;52.420;10.640;2022-09-09T05:49:24;3.45;;;1.00;;
40150;SDS011;25866;52.420;10.640;2022-09-09T05:51:50;1.80;;;0.98;;
40150;SDS011;25866;52.420;10.640;2022-09-09T05:54:16;3.83;;;1.17;;
40150;SDS011;25866;52.420;10.640;2022-09-09T05:56:42;2.50;;;0.93;;
40150;SDS011;25866;52.420;10.640;2022-09-09T05:59:07;3.30;;;1.08;;
40150;SDS011;25866;52.420;10.640;2022-09-09T06:01:34;3.78;;;1.00;;
40150;SDS011;25866;52.420;10.640;2022-09-09T06:04:03;3.33;;;1.15;;
40150;SDS011;25866;52.420;10.640;2022-09-09T06:06:32;4.60;;;1.10;;
40150;SDS011;25866;52.420;10.640;2022-09-09T06:09:02;1.63;;;0.88;;
40150;SDS011;25866;52.420;10.640;2022-09-09T06:11:31;3.30;;;1.35;;
40150;SDS011;25866;52.420;10.640;2022-09-09T06:13:58;3.55;;;0.88;;
40150;SDS011;25866;52.420;10.640;2022-09-09T06:16:25;3.58;;;0.98;;
40150;SDS011;25866;52.420;10.640;2022-09-09T06:18:52;3.15;;;0.77;;
40150;SDS011;25866;52.420;10.640;2022-09-09T06:21:31;4.63;;;1.00;;
40150;SDS011;25866;52.420;10.640;2022-09-09T06:23:59;4.53;;;1.27;;
40150;SDS011;25866;52.420;10.640;2022-09-09T06:26:26;2.55;;;0.98;;
40150;SDS011;25866;52.420;10.640;2022-09-09T06:28:57;4.85;;;1.13;;
40150;SDS011;25866;52.420;10.640;2022-09-09T06:31:24;3.40;;;1.13;;
40150;SDS011;25866;52.420;10.640;2022-09-09T06:33:52;2.65;;;0.88;;
40150;SDS011;25866;52.420;10.640;2022-09-09T06:36:21;3.33;;;1.27;;
40150;SDS011;25866;52.420;10.640;2022-09-09T06:38:48;4.45;;;0.98;;
40150;SDS011;25866;52.420;10.640;2022-09-09T06:41:15;4.13;;;1.20;;
40150;SDS011;25866;52.420;10.640;2022-09-09T06:43:43;4.00;;;1.42;;
40150;SDS011;25866;52.420;10.640;2022-09-09T06:46:16;3.00;;;1.00;;
40150;SDS011;25866;52.420;10.640;2022-09-09T06:48:44;5.35;;;1.10;;
40150;SDS011;25866;52.420;10.640;2022-09-09T06:51:11;5.65;;;1.17;;
40150;SDS011;25866;52.420;10.640;2022-09-09T06:53:39;2.85;;;0.88;;
40150;SDS011;25866;52.420;10.640;2022-09-09T06:58:41;3.33;;;1.08;;
40150;SDS011;25866;52.420;10.640;2022-09-09T07:01:11;4.43;;;1.15;;
40150;SDS011;25866;52.420;10.640;2022-09-09T07:03:39;6.00;;;1.30;;
40150;SDS011;25866;52.420;10.640;2022-09-09T07:06:05;7.18;;;1.17;;
40150;SDS011;25866;52.420;10.640;2022-09-09T07:08:32;2.85;;;1.00;;
40150;SDS011;25866;52.420;10.640;2022-09-09T07:11:02;3.53;;;0.90;;
40150;SDS011;25866;52.420;10.640;2022-09-09T07:13:30;2.00;;;0.80;;
40150;SDS011;25866;52.420;10.640;2022-09-09T07:16:02;2.83;;;1.10;;
40150;SDS011;25866;52.420;10.640;2022-09-09T07:18:32;4.57;;;1.10;;
40150;SDS011;25866;52.420;10.640;2022-09-09T07:20:59;1.92;;;0.93;;
40150;SDS011;25866;52.420;10.640;2022-09-09T07:23:27;5.55;;;1.33;;
40150;SDS011;25866;52.420;10.640;2022-09-09T07:25:53;4.75;;;0.98;;
40150;SDS011;25866;52.420;10.640;2022-09-09T07:28:19;5.55;;;1.25;;
40150;SDS011;25866;52.420;10.640;2022-09-09T07:33:22;5.68;;;1.50;;
40150;SDS011;25866;52.420;10.640;2022-09-09T07:35:49;5.80;;;1.20;;
40150;SDS011;25866;52.420;10.640;2022-09-09T07:38:15;5.40;;;1.20;;
40150;SDS011;25866;52.420;10.640;2022-09-09T07:40:41;2.63;;;1.08;;
40150;SDS011;25866;52.420;10.640;2022-09-09T07:43:06;3.60;;;1.10;;
40150;SDS011;25866;52.420;10.640;2022-09-09T07:45:33;4.93;;;1.33;;
40150;SDS011;25866;52.420;10.640;2022-09-09T07:47:59;5.80;;;1.30;;
40150;SDS011;25866;52.420;10.640;2022-09-09T07:50:25;4.30;;;1.00;;
40150;SDS011;25866;52.420;10.640;2022-09-09T07:52:51;4.32;;;1.13;;
40150;SDS011;25866;52.420;10.640;2022-09-09T07:55:18;3.97;;;1.08;;
40150;SDS011;25866;52.420;10.640;2022-09-09T07:57:45;5.55;;;1.40;;
40150;SDS011;25866;52.420;10.640;2022-09-09T08:00:11;5.00;;;1.38;;
40150;SDS011;25866;52.420;10.640;2022-09-09T08:02:37;4.00;;;1.20;;
40150;SDS011;25866;52.420;10.640;2022-09-09T08:05:03;3.80;;;1.27;;
40150;SDS011;25866;52.420;10.640;2022-09-09T08:07:31;8.40;;;1.63;;
40150;SDS011;25866;52.420;10.640;2022-09-09T08:09:56;3.70;;;1.17;;
40150;SDS011;25866;52.420;10.640;2022-09-09T08:12:22;10.02;;;1.00;;
40150;SDS011;25866;52.420;10.640;2022-09-09T08:14:48;5.38;;;1.23;;
40150;SDS011;25866;52.420;10.640;2022-09-09T08:17:14;3.10;;;0.80;;
40150;SDS011;25866;52.420;10.640;2022-09-09T08:19:39;6.22;;;1.20;;
40150;SDS011;25866;52.420;10.640;2022-09-09T08:22:05;6.40;;;0.95;;
40150;SDS011;25866;52.420;10.640;2022-09-09T08:24:31;5.50;;;0.95;;
40150;SDS011;25866;52.420;10.640;2022-09-09T08:26:56;3.60;;;1.00;;
40150;SDS011;25866;52.420;10.640;2022-09-09T08:29:22;6.22;;;1.10;;
40150;SDS011;25866;52.420;10.640;2022-09-09T08:31:52;19.92;;;2.92;;
40150;SDS011;25866;52.420;10.640;2022-09-09T08:34:19;8.52;;;1.30;;
40150;SDS011;25866;52.420;10.640;2022-09-09T08:36:46;5.20;;;1.45;;
40150;SDS011;25866;52.420;10.640;2022-09-09T08:39:14;3.67;;;1.20;;
40150;SDS011;25866;52.420;10.640;2022-09-09T08:44:39;4.40;;;1.20;;
40150;SDS011;25866;52.420;10.640;2022-09-09T08:52:28;2.95;;;0.80;;
40150;SDS011;25866;52.420;10.640;2022-09-09T08:55:25;3.10;;;0.75;;
40150;SDS011;25866;52.420;10.640;2022-09-09T08:57:56;4.22;;;1.10;;
40150;SDS011;25866;52.420;10.640;2022-09-09T09:00:32;3.40;;;1.00;;
40150;SDS011;25866;52.420;10.640;2022-09-09T09:03:14;6.10;;;1.17;;
40150;SDS011;25866;52.420;10.640;2022-09-09T09:05:50;4.03;;;1.13;;
40150;SDS011;25866;52.420;10.640;2022-09-09T09:08:31;3.05;;;1.15;;
40150;SDS011;25866;52.420;10.640;2022-09-09T09:11:06;4.50;;;0.82;;
40150;SDS011;25866;52.420;10.640;2022-09-09T09:16:32;2.58;;;0.70;;
40150;SDS011;25866;52.420;10.640;2022-09-09T09:19:19;1.92;;;0.98;;
40150;SDS011;25866;52.420;10.640;2022-09-09T09:21:49;4.20;;;0.65;;
40150;SDS011;25866;52.420;10.640;2022-09-09T09:24:50;2.13;;;0.70;;
40150;SDS011;25866;52.420;10.640;2022-09-09T09:27:33;5.13;;;1.02;;
40150;SDS011;25866;52.420;10.640;2022-09-09T09:30:04;2.92;;;1.00;;
40150;SDS011;25866;52.420;10.640;2022-09-09T09:32:39;4.53;;;0.80;;
40150;SDS011;25866;52.420;10.640;2022-09-09T09:35:12;3.20;;;0.80;;
40150;SDS011;25866;52.420;10.640;2022-09-09T09:37:39;4.22;;;0.85;;
40150;SDS011;25866;52.420;10.640;2022-09-09T09:40:12;2.40;;;0.73;;
40150;SDS011;25866;52.420;10.640;2022-09-09T09:42:56;2.97;;;0.75;;
40150;SDS011;25866;52.420;10.640;2022-09-09T09:45:43;4.65;;;0.90;;
40150;SDS011;25866;52.420;10.640;2022-09-09T09:48:10;1.85;;;0.70;;
40150;SDS011;25866;52.420;10.640;2022-09-09T09:50:51;3.17;;;0.70;;
40150;SDS011;25866;52.420;10.640;2022-09-09T09:55:52;3.97;;;1.10;;
40150;SDS011;25866;52.420;10.640;2022-09-09T09:58:30;3.40;;;0.90;;
40150;SDS011;25866;52.420;10.640;2022-09-09T10:00:59;2.65;;;0.88;;
40150;SDS011;25866;52.420;10.640;2022-09-09T10:03:29;3.72;;;0.90;;
40150;SDS011;25866;52.420;10.640;2022-09-09T10:05:57;2.35;;;0.70;;
40150;SDS011;25866;52.420;10.640;2022-09-09T10:08:23;10.48;;;1.10;;
40150;SDS011;25866;52.420;10.640;2022-09-09T10:16:23;4.80;;;1.10;;
40150;SDS011;25866;52.420;10.640;2022-09-09T10:19:11;1.92;;;0.73;;
40150;SDS011;25866;52.420;10.640;2022-09-09T10:21:44;3.45;;;0.80;;
40150;SDS011;25866;52.420;10.640;2022-09-09T10:27:03;3.13;;;0.80;;
40150;SDS011;25866;52.420;10.640;2022-09-09T10:32:38;2.30;;;0.93;;
40150;SDS011;25866;52.420;10.640;2022-09-09T10:46:35;3.20;;;0.85;;
40150;SDS011;25866;52.420;10.640;2022-09-09T10:52:31;1.83;;;0.88;;
40150;SDS011;25866;52.420;10.640;2022-09-09T10:55:09;3.67;;;1.10;;
40150;SDS011;25866;52.420;10.640;2022-09-09T10:57:45;6.20;;;0.98;;
40150;SDS011;25866;52.420;10.640;2022-09-09T11:00:17;2.55;;;0.80;;
40150;SDS011;25866;52.420;10.640;2022-09-09T11:02:47;2.67;;;0.88;;
40150;SDS011;25866;52.420;10.640;2022-09-09T11:05:47;2.92;;;1.00;;
40150;SDS011;25866;52.420;10.640;2022-09-09T11:08:18;4.00;;;1.27;;
40150;SDS011;25866;52.420;10.640;2022-09-09T11:11:06;3.15;;;0.73;;
40150;SDS011;25866;52.420;10.640;2022-09-09T11:19:04;5.25;;;1.35;;
40150;SDS011;25866;52.420;10.640;2022-09-09T11:21:59;3.63;;;1.30;;
40150;SDS011;25866;52.420;10.640;2022-09-09T11:24:45;6.35;;;1.23;;
40150;SDS011;25866;52.420;10.640;2022-09-09T11:27:19;5.15;;;1.17;;
40150;SDS011;25866;52.420;10.640;2022-09-09T11:32:53;6.93;;;1.17;;
40150;SDS011;25866;52.420;10.640;2022-09-09T11:35:39;4.55;;;1.08;;
40150;SDS011;25866;52.420;10.640;2022-09-09T11:41:12;4.60;;;1.10;;
40150;SDS011;25866;52.420;10.640;2022-09-09T11:43:44;4.82;;;1.00;;
40150;SDS011;25866;52.420;10.640;2022-09-09T11:46:12;3.38;;;0.88;;
40150;SDS011;25866;52.420;10.640;2022-09-09T11:48:42;7.65;;;1.23;;
40150;SDS011;25866;52.420;10.640;2022-09-09T11:51:12;4.00;;;1.20;;
40150;SDS011;25866;52.420;10.640;2022-09-09T11:56:27;5.20;;;1.20;;
40150;SDS011;25866;52.420;10.640;2022-09-09T11:58:57;5.82;;;1.38;;
40150;SDS011;25866;52.420;10.640;2022-09-09T12:04:09;15.70;;;1.48;;
40150;SDS011;25866;52.420;10.640;2022-09-09T12:06:52;4.30;;;1.10;;
40150;SDS011;25866;52.420;10.640;2022-09-09T12:12:21;13.95;;;1.60;;
40150;SDS011;25866;52.420;10.640;2022-09-09T12:17:36;13.27;;;2.15;;
40150;SDS011;25866;52.420;10.640;2022-09-09T12:28:32;7.57;;;1.85;;
40150;SDS011;25866;52.420;10.640;2022-09-09T12:33:55;20.45;;;3.30;;
40150;SDS011;25866;52.420;10.640;2022-09-09T12:36:51;6.25;;;1.70;;
40150;SDS011;25866;52.420;10.640;2022-09-09T12:39:28;25.83;;;2.97;;
40150;SDS011;25866;52.420;10.640;2022-09-09T12:41:57;3.00;;;1.17;;
40150;SDS011;25866;52.420;10.640;2022-09-09T12:44:25;3.72;;;1.08;;
40150;SDS011;25866;52.420;10.640;2022-09-09T12:46:54;3.88;;;1.40;;
40150;SDS011;25866;52.420;10.640;2022-09-09T12:51:59;5.53;;;1.20;;
40150;SDS011;25866;52.420;10.640;2022-09-09T12:54:33;5.05;;;1.23;;
40150;SDS011;25866;52.420;10.640;2022-09-09T12:57:01;3.47;;;1.00;;
40150;SDS011;25866;52.420;10.640;2022-09-09T12:59:35;4.43;;;1.00;;
40150;SDS011;25866;52.420;10.640;2022-09-09T13:02:02;3.03;;;1.08;;
40150;SDS011;25866;52.420;10.640;2022-09-09T13:04:36;10.57;;;1.20;;
40150;SDS011;25866;52.420;10.640;2022-09-09T13:07:05;2.25;;;0.80;;
40150;SDS011;25866;52.420;10.640;2022-09-09T13:09:34;12.05;;;1.20;;
40150;SDS011;25866;52.420;10.640;2022-09-09T13:12:00;7.28;;;1.17;;
40150;SDS011;25866;52.420;10.640;2022-09-09T13:14:29;1.50;;;0.70;;
40150;SDS011;25866;52.420;10.640;2022-09-09T13:17:00;3.17;;;0.98;;
40150;SDS011;25866;52.420;10.640;2022-09-09T13:19:33;3.15;;;0.95;;
40150;SDS011;25866;52.420;10.640;2022-09-09T13:22:14;3.03;;;0.80;;
40150;SDS011;25866;52.420;10.640;2022-09-09T13:24:46;3.65;;;0.80;;
40150;SDS011;25866;52.420;10.640;2022-09-09T13:27:29;1.25;;;0.57;;
40150;SDS011;25866;52.420;10.640;2022-09-09T13:29:59;2.25;;;0.63;;
40150;SDS011;25866;52.420;10.640;2022-09-09T13:32:26;1.25;;;0.47;;
40150;SDS011;25866;52.420;10.640;2022-09-09T13:37:28;3.80;;;0.88;;
40150;SDS011;25866;52.420;10.640;2022-09-09T13:40:01;4.03;;;0.90;;
40150;SDS011;25866;52.420;10.640;2022-09-09T13:42:29;1.65;;;0.50;;
40150;SDS011;25866;52.420;10.640;2022-09-09T13:44:57;3.38;;;0.60;;
40150;SDS011;25866;52.420;10.640;2022-09-09T13:47:31;3.42;;;0.65;;
40150;SDS011;25866;52.420;10.640;2022-09-09T13:50:44;0.80;;;0.43;;
40150;SDS011;25866;52.420;10.640;2022-09-09T13:52:47;2.20;;;0.52;;
40150;SDS011;25866;52.420;10.640;2022-09-09T13:55:15;2.70;;;0.70;;
40150;SDS011;25866;52.420;10.640;2022-09-09T13:57:49;1.27;;;0.57;;
40150;SDS011;25866;52.420;10.640;2022-09-09T14:00:19;3.28;;;1.08;;
40150;SDS011;25866;52.420;10.640;2022-09-09T14:02:46;2.28;;;0.90;;
40150;SDS011;25866;52.420;10.640;2022-09-09T14:05:12;7.15;;;0.93;;
40150;SDS011;25866;52.420;10.640;2022-09-09T14:07:39;4.47;;;1.00;;
40150;SDS011;25866;52.420;10.640;2022-09-09T14:10:06;4.65;;;0.70;;
40150;SDS011;25866;52.420;10.640;2022-09-09T14:12:32;4.70;;;0.77;;
40150;SDS011;25866;52.420;10.640;2022-09-09T14:14:58;3.00;;;0.60;;
40150;SDS011;25866;52.420;10.640;2022-09-09T14:17:25;6.15;;;0.80;;
40150;SDS011;25866;52.420;10.640;2022-09-09T14:19:54;2.80;;;0.90;;
40150;SDS011;25866;52.420;10.640;2022-09-09T14:22:21;3.97;;;1.08;;
40150;SDS011;25866;52.420;10.640;2022-09-09T14:24:47;5.50;;;1.15;;
40150;SDS011;25866;52.420;10.640;2022-09-09T14:27:13;2.25;;;0.70;;
40150;SDS011;25866;52.420;10.640;2022-09-09T14:29:39;1.55;;;0.60;;
40150;SDS011;25866;52.420;10.640;2022-09-09T14:32:04;3.28;;;0.82;;
40150;SDS011;25866;52.420;10.640;2022-09-09T14:34:30;4.28;;;0.60;;
40150;SDS011;25866;52.420;10.640;2022-09-09T14:36:57;2.75;;;0.70;;
40150;SDS011;25866;52.420;10.640;2022-09-09T14:39:23;1.38;;;0.55;;
40150;SDS011;25866;52.420;10.640;2022-09-09T14:41:49;7.38;;;0.77;;
40150;SDS011;25866;52.420;10.640;2022-09-09T14:44:15;2.20;;;0.50;;
40150;SDS011;25866;52.420;10.640;2022-09-09T14:46:44;3.60;;;0.75;;
40150;SDS011;25866;52.420;10.640;2022-09-09T14:49:09;1.77;;;0.85;;
40150;SDS011;25866;52.420;10.640;2022-09-09T14:51:35;1.27;;;0.50;;
40150;SDS011;25866;52.420;10.640;2022-09-09T14:54:01;3.53;;;0.80;;
40150;SDS011;25866;52.420;10.640;2022-09-09T14:56:29;1.60;;;0.60;;
40150;SDS011;25866;52.420;10.640;2022-09-09T14:58:56;2.90;;;0.68;;
40150;SDS011;25866;52.420;10.640;2022-09-09T15:01:23;2.92;;;0.80;;
40150;SDS011;25866;52.420;10.640;2022-09-09T15:04:02;6.63;;;0.98;;
40150;SDS011;25866;52.420;10.640;2022-09-09T15:06:30;2.97;;;0.75;;
40150;SDS011;25866;52.420;10.640;2022-09-09T15:08:58;4.03;;;0.80;;
40150;SDS011;25866;52.420;10.640;2022-09-09T15:11:33;4.72;;;0.80;;
40150;SDS011;25866;52.420;10.640;2022-09-09T15:14:02;3.38;;;0.98;;
40150;SDS011;25866;52.420;10.640;2022-09-09T15:16:32;2.55;;;0.75;;
40150;SDS011;25866;52.420;10.640;2022-09-09T15:18:59;2.08;;;0.60;;
40150;SDS011;25866;52.420;10.640;2022-09-09T15:21:27;3.00;;;0.90;;
40150;SDS011;25866;52.420;10.640;2022-09-09T15:23:55;2.47;;;0.88;;
40150;SDS011;25866;52.420;10.640;2022-09-09T15:26:22;2.17;;;0.68;;
40150;SDS011;25866;52.420;10.640;2022-09-09T15:28:48;1.42;;;0.70;;
40150;SDS011;25866;52.420;10.640;2022-09-09T15:31:17;3.45;;;0.77;;
40150;SDS011;25866;52.420;10.640;2022-09-09T15:33:54;1.08;;;0.57;;
40150;SDS011;25866;52.420;10.640;2022-09-09T15:36:28;1.95;;;0.50;;
40150;SDS011;25866;52.420;10.640;2022-09-09T15:38:58;4.03;;;1.00;;
40150;SDS011;25866;52.420;10.640;2022-09-09T15:41:28;1.58;;;0.70;;
40150;SDS011;25866;52.420;10.640;2022-09-09T15:43:54;3.92;;;0.90;;
40150;SDS011;25866;52.420;10.640;2022-09-09T15:46:26;2.47;;;0.73;;
40150;SDS011;25866;52.420;10.640;2022-09-09T15:48:54;1.50;;;0.70;;
40150;SDS011;25866;52.420;10.640;2022-09-09T15:51:22;2.20;;;0.70;;
40150;SDS011;25866;52.420;10.640;2022-09-09T15:53:53;2.88;;;0.80;;
40150;SDS011;25866;52.420;10.640;2022-09-09T15:56:23;3.63;;;0.95;;
40150;SDS011;25866;52.420;10.640;2022-09-09T15:58:49;4.40;;;0.98;;
40150;SDS011;25866;52.420;10.640;2022-09-09T16:01:17;2.45;;;0.82;;
40150;SDS011;25866;52.420;10.640;2022-09-09T16:03:44;4.95;;;0.70;;
40150;SDS011;25866;52.420;10.640;2022-09-09T16:06:15;2.22;;;0.63;;
40150;SDS011;25866;52.420;10.640;2022-09-09T16:08:49;0.85;;;0.50;;
40150;SDS011;25866;52.420;10.640;2022-09-09T16:11:18;1.27;;;0.60;;
40150;SDS011;25866;52.420;10.640;2022-09-09T16:13:49;3.50;;;0.90;;
40150;SDS011;25866;52.420;10.640;2022-09-09T16:16:16;2.08;;;0.60;;
40150;SDS011;25866;52.420;10.640;2022-09-09T16:18:45;3.03;;;1.13;;
40150;SDS011;25866;52.420;10.640;2022-09-09T16:21:35;2.55;;;0.80;;
40150;SDS011;25866;52.420;10.640;2022-09-09T16:24:01;2.85;;;0.85;;
40150;SDS011;25866;52.420;10.640;2022-09-09T16:26:29;3.90;;;0.80;;
40150;SDS011;25866;52.420;10.640;2022-09-09T16:28:56;4.13;;;1.25;;
40150;SDS011;25866;52.420;10.640;2022-09-09T16:31:24;4.57;;;1.00;;
40150;SDS011;25866;52.420;10.640;2022-09-09T16:33:50;3.95;;;0.77;;
40150;SDS011;25866;52.420;10.640;2022-09-09T16:36:17;3.42;;;0.60;;
40150;SDS011;25866;52.420;10.640;2022-09-09T16:38:51;2.33;;;1.20;;
40150;SDS011;25866;52.420;10.640;2022-09-09T16:41:18;1.45;;;0.75;;
40150;SDS011;25866;52.420;10.640;2022-09-09T16:43:45;3.88;;;0.80;;
40150;SDS011;25866;52.420;10.640;2022-09-09T16:46:14;2.33;;;0.85;;
40150;SDS011;25866;52.420;10.640;2022-09-09T16:48:42;1.90;;;0.60;;
40150;SDS011;25866;52.420;10.640;2022-09-09T16:51:16;2.95;;;0.90;;
40150;SDS011;25866;52.420;10.640;2022-09-09T16:53:48;5.47;;;1.10;;
40150;SDS011;25866;52.420;10.640;2022-09-09T16:56:16;7.93;;;1.80;;